Time;durP1;ratioP1;P1;durP2;ratioP2;P2;SDS_P1;SDS_P2;PMS_P1;PMS_P2;Temp;Humidity;BMP_temperature;BMP_pressure;BME280_temperature;BME280_humidity;BME280_pressure;Samples;Min_cycle;Max_cycle;Signal;HPM_P1;HPM_P2
2021/03/20 00:00:16;;;;;;;11.83;7.20;;;0.40;90.80;;;;;;4974555;28;20224;-86
2021/03/20 00:02:43;;;;;;;7.97;6.60;;;0.30;90.90;;;;;;4975051;28;20680;-87
2021/03/20 00:05:11;;;;;;;9.00;6.77;;;0.30;90.90;;;;;;4967770;28;20238;-86
2021/03/20 00:07:38;;;;;;;8.17;6.33;;;0.20;90.90;;;;;;4974431;28;20222;-85
2021/03/20 00:10:10;;;;;;;9.70;6.63;;;0.10;91.60;;;;;;4971596;28;20223;-86
2021/03/20 00:12:37;;;;;;;9.47;6.60;;;0.10;91.30;;;;;;4979443;28;20220;-88
2021/03/20 00:15:06;;;;;;;9.17;6.70;;;0.10;91.30;;;;;;4979710;28;20609;-88
2021/03/20 00:17:32;;;;;;;8.67;6.67;;;0.10;91.40;;;;;;4981340;28;20244;-86
2021/03/20 00:19:58;;;;;;;9.60;6.97;;;0.20;91.20;;;;;;4975371;28;20307;-86
2021/03/20 00:22:25;;;;;;;9.47;6.73;;;0.30;91.10;;;;;;4971876;28;20232;-87
2021/03/20 00:24:51;;;;;;;8.23;6.60;;;0.30;91.00;;;;;;4975334;28;20228;-87
2021/03/20 00:27:18;;;;;;;6.70;5.97;;;0.30;90.60;;;;;;4974658;28;20252;-86
2021/03/20 00:29:45;;;;;;;8.57;6.13;;;0.20;90.80;;;;;;4969039;28;20300;-90
2021/03/20 00:32:11;;;;;;;7.90;6.67;;;0.30;91.00;;;;;;4975163;28;20277;-88
2021/03/20 00:34:39;;;;;;;9.03;6.53;;;0.20;90.30;;;;;;4981620;28;20239;-86
2021/03/20 00:37:05;;;;;;;7.70;5.90;;;0.20;90.40;;;;;;4970786;28;20860;-87
2021/03/20 00:39:32;;;;;;;8.07;6.37;;;0.20;90.50;;;;;;4977890;28;20255;-87
2021/03/20 00:41:58;;;;;;;8.10;6.63;;;0.10;90.50;;;;;;4978951;28;20235;-87
2021/03/20 00:44:26;;;;;;;10.40;6.70;;;0.20;90.50;;;;;;4976301;28;20231;-88
2021/03/20 00:46:52;;;;;;;8.07;6.30;;;0.20;90.10;;;;;;4981225;28;20234;-87
2021/03/20 00:49:19;;;;;;;7.83;6.10;;;0.10;90.50;;;;;;4978173;28;20228;-87
2021/03/20 00:51:45;;;;;;;8.00;5.93;;;0.00;90.50;;;;;;4974191;28;20205;-87
2021/03/20 00:54:12;;;;;;;7.30;6.10;;;0.00;90.50;;;;;;4976840;28;20219;-89
2021/03/20 00:56:38;;;;;;;7.80;6.23;;;0.10;90.80;;;;;;4973300;28;20212;-87
2021/03/20 00:59:05;;;;;;;9.33;6.30;;;0.20;90.50;;;;;;4980038;28;20232;-87
2021/03/20 01:01:32;;;;;;;7.30;5.83;;;0.10;90.40;;;;;;4976600;28;20205;-86
2021/03/20 01:03:58;;;;;;;9.57;6.50;;;0.00;90.30;;;;;;4976871;28;20267;-87
2021/03/20 01:06:27;;;;;;;8.93;6.47;;;-0.10;90.60;;;;;;4974577;28;20259;-86
2021/03/20 01:08:54;;;;;;;8.07;6.30;;;-0.10;90.90;;;;;;4969316;28;20222;-86
2021/03/20 01:11:22;;;;;;;7.50;6.20;;;-0.10;90.90;;;;;;4972190;28;20271;-89
2021/03/20 01:13:49;;;;;;;7.43;5.70;;;0.00;90.50;;;;;;4975498;28;20236;-87
2021/03/20 01:16:15;;;;;;;8.63;6.43;;;-0.10;90.50;;;;;;4975894;28;20215;-90
2021/03/20 01:18:43;;;;;;;6.93;5.57;;;-0.10;90.90;;;;;;4976020;28;20228;-87
2021/03/20 01:21:11;;;;;;;7.43;5.97;;;-0.10;90.40;;;;;;4976059;28;20254;-88
2021/03/20 01:23:37;;;;;;;7.77;6.27;;;-0.20;90.50;;;;;;4967732;28;20232;-87
2021/03/20 01:26:04;;;;;;;8.50;5.67;;;-0.20;91.00;;;;;;4969874;28;20203;-86
2021/03/20 01:28:32;;;;;;;7.70;5.70;;;-0.30;90.80;;;;;;4971926;28;20313;-87
2021/03/20 01:31:00;;;;;;;8.83;6.10;;;-0.30;90.70;;;;;;4974702;28;20203;-86
2021/03/20 01:33:26;;;;;;;7.03;5.73;;;-0.30;90.90;;;;;;4966409;28;20240;-87
2021/03/20 01:35:54;;;;;;;7.57;5.20;;;-0.30;91.10;;;;;;4969546;28;20211;-86
2021/03/20 01:38:21;;;;;;;6.67;5.50;;;-0.30;90.80;;;;;;4966585;28;20241;-87
2021/03/20 01:40:53;;;;;;;7.53;5.70;;;-0.40;90.60;;;;;;4977224;28;20261;-86
2021/03/20 01:43:23;;;;;;;7.30;5.53;;;-0.40;90.80;;;;;;4955672;28;20236;-87
2021/03/20 01:45:49;;;;;;;7.57;5.20;;;-0.40;90.80;;;;;;4966879;28;20207;-89
2021/03/20 01:48:21;;;;;;;7.23;5.70;;;-0.40;90.90;;;;;;4972755;28;20516;-87
2021/03/20 01:50:56;;;;;;;7.30;5.00;;;-0.50;90.60;;;;;;4969861;28;20306;-87
2021/03/20 01:53:33;;;;;;;7.60;5.77;;;-0.50;90.90;;;;;;4973769;28;20235;-89
2021/03/20 01:56:01;;;;;;;7.30;5.43;;;-0.50;91.20;;;;;;4975696;28;20238;-86
2021/03/20 01:58:30;;;;;;;7.07;5.70;;;-0.50;91.20;;;;;;4978212;28;20220;-87
2021/03/20 02:01:03;;;;;;;8.50;5.83;;;-0.50;91.20;;;;;;4965723;28;20208;-86
2021/03/20 02:03:30;;;;;;;7.57;5.63;;;-0.60;91.20;;;;;;4971012;28;20232;-86
2021/03/20 02:06:00;;;;;;;7.67;5.60;;;-0.60;91.60;;;;;;4967453;28;20215;-87
2021/03/20 02:08:27;;;;;;;6.57;5.60;;;-0.50;91.50;;;;;;4969881;28;20220;-87
2021/03/20 02:10:59;;;;;;;8.17;5.80;;;-0.50;91.30;;;;;;4971686;28;20224;-87
2021/03/20 02:13:38;;;;;;;7.60;6.03;;;-0.40;91.20;;;;;;4970209;28;20228;-86
2021/03/20 02:16:12;;;;;;;7.57;6.17;;;-0.30;91.30;;;;;;4970838;28;20213;-89
2021/03/20 02:18:45;;;;;;;8.10;5.87;;;-0.30;90.90;;;;;;4973330;28;20228;-86
2021/03/20 02:21:27;;;;;;;9.00;6.50;;;-0.20;91.20;;;;;;4973820;28;20267;-87
2021/03/20 02:24:30;;;;;;;9.07;6.57;;;-0.20;90.80;;;;;;4966252;28;20224;-88
2021/03/20 02:27:38;;;;;;;8.60;6.67;;;0.00;90.60;;;;;;4971240;28;20639;-86
2021/03/20 02:30:34;;;;;;;9.20;6.50;;;0.10;90.20;;;;;;4968490;28;21432;-86
2021/03/20 02:33:27;;;;;;;9.57;6.20;;;0.00;90.60;;;;;;4889524;28;20235;-86
2021/03/20 02:36:04;;;;;;;9.07;6.63;;;0.00;90.60;;;;;;4969185;28;20208;-86
2021/03/20 02:38:40;;;;;;;9.37;6.33;;;0.10;90.70;;;;;;4975617;28;20232;-87
2021/03/20 02:41:15;;;;;;;8.03;6.37;;;0.20;90.20;;;;;;4975652;28;20277;-86
2021/03/20 02:43:51;;;;;;;7.90;6.50;;;0.10;90.00;;;;;;4978618;28;20715;-86
2021/03/20 02:46:23;;;;;;;7.77;6.40;;;0.10;90.50;;;;;;4972350;28;20204;-87
2021/03/20 02:48:57;;;;;;;8.87;6.90;;;0.10;90.20;;;;;;4973815;28;20686;-86
2021/03/20 02:51:30;;;;;;;7.93;6.77;;;0.10;90.50;;;;;;4970807;28;20615;-87
2021/03/20 02:54:02;;;;;;;8.90;6.97;;;0.00;90.30;;;;;;4971901;28;20318;-89
2021/03/20 02:56:34;;;;;;;8.77;7.03;;;0.00;90.50;;;;;;4970545;28;20297;-88
2021/03/20 02:59:05;;;;;;;8.20;6.40;;;0.10;90.60;;;;;;4975670;28;20223;-87
2021/03/20 03:01:33;;;;;;;7.87;6.23;;;0.00;90.30;;;;;;4970451;28;20655;-88
2021/03/20 03:04:02;;;;;;;7.57;5.93;;;0.10;90.20;;;;;;4973598;28;20220;-86
2021/03/20 03:06:34;;;;;;;9.07;6.23;;;0.10;90.30;;;;;;4974848;28;20197;-87
2021/03/20 03:09:05;;;;;;;7.90;6.43;;;0.10;90.20;;;;;;4971377;28;20231;-86
2021/03/20 03:11:35;;;;;;;8.13;6.10;;;0.10;90.30;;;;;;4975473;28;20279;-87
2021/03/20 03:14:07;;;;;;;8.07;6.23;;;0.10;90.30;;;;;;4971877;28;20234;-86
2021/03/20 03:16:38;;;;;;;7.63;5.97;;;0.10;90.40;;;;;;4971499;28;20672;-86
2021/03/20 03:19:09;;;;;;;8.60;5.93;;;0.10;90.50;;;;;;4974478;28;20226;-85
2021/03/20 03:21:41;;;;;;;7.77;6.10;;;0.10;90.50;;;;;;4977959;28;20612;-86
2021/03/20 03:24:09;;;;;;;8.30;5.63;;;0.20;90.50;;;;;;4976288;28;20264;-87
2021/03/20 03:26:39;;;;;;;7.87;5.70;;;0.30;90.20;;;;;;4971666;28;20208;-86
2021/03/20 03:29:11;;;;;;;7.40;5.73;;;0.30;90.00;;;;;;4977020;28;20238;-87
2021/03/20 03:31:43;;;;;;;7.20;5.83;;;0.30;89.50;;;;;;4980022;28;20531;-90
2021/03/20 03:34:18;;;;;;;8.07;5.90;;;0.30;89.50;;;;;;4972268;28;20220;-86
2021/03/20 03:36:52;;;;;;;7.60;5.63;;;0.30;88.70;;;;;;4976351;28;20216;-86
2021/03/20 03:39:25;;;;;;;5.83;5.10;;;0.20;89.60;;;;;;4971859;28;20243;-87
2021/03/20 03:41:52;;;;;;;7.40;5.90;;;0.20;89.90;;;;;;4971711;28;20203;-89
2021/03/20 03:44:18;;;;;;;7.50;6.10;;;0.30;89.90;;;;;;4972231;28;20286;-86
2021/03/20 03:46:47;;;;;;;6.47;5.47;;;0.10;89.40;;;;;;4972673;28;20208;-88
2021/03/20 03:49:18;;;;;;;6.27;5.10;;;0.10;89.70;;;;;;4973475;28;20232;-89
2021/03/20 03:51:45;;;;;;;7.50;5.33;;;0.00;90.20;;;;;;4972541;28;20207;-88
2021/03/20 03:54:11;;;;;;;7.43;5.37;;;0.00;90.20;;;;;;4974260;28;20769;-86
2021/03/20 03:57:02;;;;;;;7.53;5.57;;;0.00;90.70;;;;;;4970108;28;20217;-86
2021/03/20 03:59:41;;;;;;;6.97;4.77;;;0.10;90.90;;;;;;4974505;28;20224;-89
2021/03/20 04:02:20;;;;;;;5.90;5.00;;;0.10;90.50;;;;;;4970570;28;20671;-87
2021/03/20 04:04:59;;;;;;;6.57;5.17;;;0.00;90.50;;;;;;4974200;28;20239;-87
2021/03/20 04:07:46;;;;;;;6.00;5.10;;;-0.10;90.40;;;;;;4973834;28;20201;-86
2021/03/20 04:10:24;;;;;;;5.47;4.77;;;-0.10;91.10;;;;;;4974359;28;20223;-85
2021/03/20 04:12:58;;;;;;;6.57;5.30;;;-0.20;90.50;;;;;;4975685;28;20208;-87
2021/03/20 04:15:36;;;;;;;5.70;4.73;;;-0.20;91.00;;;;;;4977393;28;20302;-86
2021/03/20 04:18:10;;;;;;;7.87;4.97;;;-0.20;91.30;;;;;;4979081;28;20228;-88
2021/03/20 04:20:45;;;;;;;6.60;4.70;;;-0.30;90.90;;;;;;4983082;28;20216;-86
2021/03/20 04:23:17;;;;;;;8.63;5.20;;;-0.20;91.30;;;;;;4978683;28;20228;-85
2021/03/20 04:25:48;;;;;;;5.30;4.20;;;-0.20;91.10;;;;;;4977107;28;20205;-85
2021/03/20 04:28:23;;;;;;;5.40;4.57;;;-0.20;91.40;;;;;;4971755;28;20232;-85
2021/03/20 04:30:52;;;;;;;5.13;4.40;;;-0.10;91.30;;;;;;4980391;28;20204;-86
2021/03/20 04:33:23;;;;;;;6.07;4.77;;;-0.20;91.40;;;;;;4979578;28;20236;-87
2021/03/20 04:35:56;;;;;;;5.10;4.27;;;-0.20;91.50;;;;;;4975894;28;20208;-87
2021/03/20 04:38:23;;;;;;;5.43;4.60;;;-0.20;91.70;;;;;;4977709;28;20224;-86
2021/03/20 04:40:54;;;;;;;7.47;4.83;;;-0.20;91.70;;;;;;4978245;28;20227;-85
2021/03/20 04:43:23;;;;;;;6.03;4.90;;;-0.20;91.60;;;;;;4976405;28;20238;-87
2021/03/20 04:45:55;;;;;;;5.17;4.63;;;-0.30;91.90;;;;;;4984808;28;20922;-85
2021/03/20 04:48:27;;;;;;;6.13;5.23;;;-0.20;92.10;;;;;;4977199;28;20814;-86
2021/03/20 04:50:59;;;;;;;5.73;4.83;;;-0.20;92.30;;;;;;4979396;28;20213;-87
2021/03/20 04:53:26;;;;;;;6.07;4.77;;;-0.20;92.40;;;;;;4984564;28;20296;-91
2021/03/20 04:55:57;;;;;;;6.27;5.03;;;-0.30;92.40;;;;;;4975591;28;20209;-85
2021/03/20 04:58:36;;;;;;;6.50;4.57;;;-0.20;92.50;;;;;;4973155;28;20224;-86
2021/03/20 05:01:09;;;;;;;6.07;5.00;;;-0.20;92.70;;;;;;4970438;28;20200;-86
2021/03/20 05:03:40;;;;;;;5.90;5.20;;;-0.40;92.00;;;;;;4977271;28;20250;-85
2021/03/20 05:06:10;;;;;;;7.13;5.17;;;-0.40;92.20;;;;;;4976517;28;20200;-86
2021/03/20 05:08:39;;;;;;;6.63;4.70;;;-0.40;91.80;;;;;;4979545;28;20236;-87
2021/03/20 05:11:15;;;;;;;5.73;4.80;;;-0.50;91.90;;;;;;4978331;28;20213;-86
2021/03/20 05:13:47;;;;;;;6.40;5.07;;;-0.40;92.10;;;;;;4973539;28;20232;-87
2021/03/20 05:16:32;;;;;;;7.40;5.40;;;-0.50;91.30;;;;;;4975566;28;20668;-86
2021/03/20 05:18:58;;;;;;;6.27;4.80;;;-0.50;91.80;;;;;;4973039;28;20381;-88
2021/03/20 05:21:29;;;;;;;5.37;4.40;;;-0.30;92.00;;;;;;4968163;28;20659;-87
2021/03/20 05:23:56;;;;;;;6.07;4.80;;;-0.20;91.50;;;;;;4975606;28;20227;-86
2021/03/20 05:26:23;;;;;;;6.13;4.33;;;-0.20;90.80;;;;;;4980693;28;20213;-86
2021/03/20 05:28:50;;;;;;;5.60;5.00;;;-0.20;90.00;;;;;;4981483;28;20242;-86
2021/03/20 05:31:17;;;;;;;7.00;5.00;;;-0.20;90.50;;;;;;4983367;28;20225;-86
2021/03/20 05:33:46;;;;;;;8.90;5.37;;;-0.30;90.50;;;;;;4981019;28;20286;-86
2021/03/20 05:36:12;;;;;;;6.20;4.53;;;-0.20;91.00;;;;;;4981536;28;20236;-88
2021/03/20 05:38:43;;;;;;;6.87;5.10;;;-0.10;90.90;;;;;;4973721;28;20608;-86
2021/03/20 05:41:26;;;;;;;6.43;4.93;;;0.00;90.60;;;;;;4977112;28;20201;-87
2021/03/20 05:44:04;;;;;;;5.87;5.10;;;0.10;90.00;;;;;;4973478;28;20240;-86
2021/03/20 05:46:38;;;;;;;6.47;4.67;;;0.10;89.60;;;;;;4969072;28;20209;-86
2021/03/20 05:49:23;;;;;;;6.03;5.30;;;-0.10;89.80;;;;;;4967390;28;20645;-86
2021/03/20 05:52:24;;;;;;;6.60;5.30;;;-0.10;90.60;;;;;;4980320;28;20218;-86
2021/03/20 05:55:07;;;;;;;5.87;4.83;;;0.00;90.90;;;;;;4971854;28;20247;-85
2021/03/20 05:57:42;;;;;;;9.47;5.90;;;-0.20;91.00;;;;;;4973324;28;20205;-88
2021/03/20 06:00:21;;;;;;;6.47;5.30;;;-0.20;91.30;;;;;;4966239;28;20214;-87
2021/03/20 06:03:20;;;;;;;5.90;4.90;;;-0.20;91.30;;;;;;4970474;28;20235;-85
2021/03/20 06:05:51;;;;;;;6.73;5.23;;;-0.20;91.30;;;;;;4964813;28;20197;-86
2021/03/20 06:08:41;;;;;;;5.97;4.77;;;-0.10;91.10;;;;;;4972725;28;20236;-86
2021/03/20 06:11:23;;;;;;;4.73;3.93;;;-0.30;90.70;;;;;;4966765;28;20197;-86
2021/03/20 06:14:07;;;;;;;4.83;3.80;;;-0.30;89.20;;;;;;4970404;28;20225;-85
2021/03/20 06:16:37;;;;;;;4.20;3.40;;;-0.20;89.50;;;;;;4974321;28;20609;-86
2021/03/20 06:19:33;;;;;;;5.93;4.27;;;-0.30;85.60;;;;;;4969187;28;20310;-90
2021/03/20 06:22:30;;;;;;;4.13;2.97;;;-0.40;86.80;;;;;;4973271;28;20204;-88
2021/03/20 06:25:29;;;;;;;4.27;3.63;;;-0.40;85.50;;;;;;4967608;28;20593;-85
2021/03/20 06:27:59;;;;;;;4.47;3.73;;;-0.50;84.70;;;;;;4972459;28;20212;-87
2021/03/20 06:30:36;;;;;;;5.27;3.57;;;-0.40;84.70;;;;;;4976541;28;20199;-86
2021/03/20 06:33:15;;;;;;;4.70;3.53;;;-0.20;85.70;;;;;;4979171;28;20255;-88
2021/03/20 06:35:45;;;;;;;5.07;4.10;;;0.00;83.80;;;;;;4970682;28;20211;-86
2021/03/20 06:38:25;;;;;;;4.20;3.50;;;0.10;81.00;;;;;;4974684;28;20224;-87
2021/03/20 06:40:57;;;;;;;4.83;3.80;;;0.20;80.80;;;;;;4968559;28;20279;-85
2021/03/20 06:43:32;;;;;;;4.83;4.40;;;0.30;79.10;;;;;;4961799;28;20228;-91
2021/03/20 06:45:59;;;;;;;4.97;4.17;;;0.30;79.10;;;;;;4967249;28;20211;-86
2021/03/20 06:48:31;;;;;;;5.57;4.07;;;0.50;78.50;;;;;;4972676;28;20278;-87
2021/03/20 06:51:00;;;;;;;4.60;4.10;;;0.70;77.80;;;;;;4971392;28;20232;-87
2021/03/20 06:53:40;;;;;;;4.20;3.77;;;0.70;76.30;;;;;;4971826;28;20229;-86
2021/03/20 06:56:09;;;;;;;4.57;4.00;;;0.90;76.00;;;;;;4977718;28;20258;-86
2021/03/20 06:58:39;;;;;;;3.90;3.50;;;1.10;75.80;;;;;;4973202;28;20626;-87
2021/03/20 07:01:14;;;;;;;3.90;3.47;;;1.20;73.70;;;;;;4970446;28;20215;-85
2021/03/20 07:04:13;;;;;;;7.27;4.20;;;1.40;73.20;;;;;;4975556;28;20229;-87
2021/03/20 07:06:54;;;;;;;4.83;3.93;;;1.40;71.90;;;;;;4915455;28;20215;-86
2021/03/20 07:09:21;;;;;;;5.40;4.27;;;1.50;70.30;;;;;;4977398;28;20229;-85
2021/03/20 07:12:05;;;;;;;4.57;3.50;;;1.40;70.00;;;;;;4973317;28;20230;-84
2021/03/20 07:14:38;;;;;;;5.63;3.93;;;1.30;73.10;;;;;;4971267;28;20313;-88
2021/03/20 07:17:07;;;;;;;4.23;3.63;;;1.50;72.40;;;;;;4974236;28;20659;-86
2021/03/20 07:19:34;;;;;;;3.67;3.37;;;1.40;69.10;;;;;;4973932;28;20302;-86
2021/03/20 07:22:07;;;;;;;3.87;3.40;;;1.60;70.00;;;;;;4976867;28;20207;-86
2021/03/20 07:24:36;;;;;;;4.37;3.43;;;1.70;68.40;;;;;;4974663;28;20239;-88
2021/03/20 07:27:06;;;;;;;4.00;3.20;;;1.60;66.20;;;;;;4968599;28;20647;-86
2021/03/20 07:29:52;;;;;;;4.83;4.00;;;1.40;65.90;;;;;;4978399;28;20253;-87
2021/03/20 07:32:31;;;;;;;4.83;3.57;;;1.70;66.30;;;;;;4971499;28;20200;-87
2021/03/20 07:35:14;;;;;;;4.37;3.97;;;1.70;66.50;;;;;;4969319;28;20302;-85
2021/03/20 07:37:41;;;;;;;4.80;3.63;;;1.70;66.00;;;;;;4967818;28;20212;-89
2021/03/20 07:40:18;;;;;;;5.33;3.97;;;1.80;64.50;;;;;;4970326;28;20208;-86
2021/03/20 07:42:46;;;;;;;5.23;4.40;;;1.70;67.40;;;;;;4967762;28;20229;-85
2021/03/20 07:45:29;;;;;;;3.83;3.43;;;1.40;66.00;;;;;;4973113;28;20238;-86
2021/03/20 07:48:04;;;;;;;4.30;3.80;;;1.20;65.80;;;;;;4970657;28;20297;-84
2021/03/20 07:50:38;;;;;;;4.30;3.90;;;1.40;68.90;;;;;;4971461;28;20207;-84
2021/03/20 07:53:11;;;;;;;5.93;3.90;;;1.80;66.40;;;;;;4972819;28;20298;-84
2021/03/20 07:56:01;;;;;;;4.03;3.63;;;1.80;64.40;;;;;;4971943;28;20331;-83
2021/03/20 07:58:38;;;;;;;3.93;3.53;;;2.30;64.70;;;;;;4972023;28;20242;-85
2021/03/20 08:01:08;;;;;;;3.63;2.97;;;2.60;60.70;;;;;;4971822;28;20211;-86
2021/03/20 08:03:50;;;;;;;4.93;3.87;;;2.70;57.60;;;;;;4967843;28;21162;-86
2021/03/20 08:06:19;;;;;;;4.57;4.03;;;2.40;58.00;;;;;;4969182;28;20208;-85
2021/03/20 08:08:47;;;;;;;5.80;3.83;;;2.00;60.40;;;;;;4971956;28;20287;-83
2021/03/20 08:11:27;;;;;;;4.67;4.27;;;1.90;63.80;;;;;;4968214;28;20247;-90
2021/03/20 08:14:00;;;;;;;10.13;3.53;;;2.10;64.50;;;;;;4966718;28;20322;-85
2021/03/20 08:16:27;;;;;;;4.20;3.37;;;4.30;88.00;;;;;;4970460;28;20567;-87
2021/03/20 08:18:56;;;;;;;4.17;3.40;;;4.80;51.60;;;;;;4975460;28;20236;-85
2021/03/20 08:22:04;;;;;;;10.07;7.47;;;4.20;48.80;;;;;;4975030;28;20201;-89
2021/03/20 08:24:40;;;;;;;40.83;25.93;;;4.60;52.70;;;;;;4970701;28;20240;-87
2021/03/20 08:27:15;;;;;;;5.63;3.80;;;4.90;55.30;;;;;;4970325;28;20200;-84
2021/03/20 08:29:54;;;;;;;4.23;3.10;;;4.80;57.70;;;;;;4971674;28;20227;-85
2021/03/20 08:32:39;;;;;;;3.73;3.17;;;4.70;49.80;;;;;;4973941;28;20330;-84
2021/03/20 08:35:15;;;;;;;4.40;3.23;;;3.80;49.40;;;;;;4972439;28;20226;-84
2021/03/20 08:38:07;;;;;;;3.87;3.47;;;4.20;47.90;;;;;;4971448;28;20207;-85
2021/03/20 08:40:46;;;;;;;4.17;3.60;;;4.90;44.20;;;;;;4966745;28;20205;-88
2021/03/20 08:43:48;;;;;;;25.03;17.80;;;5.40;44.60;;;;;;4971401;28;20232;-90
2021/03/20 08:46:37;;;;;;;4.43;3.17;;;5.70;44.80;;;;;;4974011;28;20211;-90
2021/03/20 08:49:11;;;;;;;5.17;3.27;;;5.70;41.10;;;;;;4975946;28;20235;-92
2021/03/20 08:51:59;;;;;;;3.07;2.77;;;5.50;42.30;;;;;;4968677;28;20344;-89
2021/03/20 08:54:39;;;;;;;5.13;3.40;;;5.20;40.40;;;;;;4980400;28;20228;-88
2021/03/20 08:57:21;;;;;;;3.33;2.80;;;6.80;40.70;;;;;;4983428;28;20207;-88
2021/03/20 08:59:54;;;;;;;6.70;3.53;;;7.00;41.70;;;;;;4974906;28;20311;-88
2021/03/20 09:02:39;;;;;;;5.10;3.97;;;6.60;39.10;;;;;;4975849;28;20269;-87
2021/03/20 09:05:20;;;;;;;6.33;3.67;;;6.10;44.60;;;;;;4970473;28;20224;-88
2021/03/20 09:07:51;;;;;;;3.50;3.20;;;6.90;39.40;;;;;;4970328;28;20200;-91
2021/03/20 09:10:24;;;;;;;5.18;3.60;;;7.60;39.90;;;;;;4975046;28;20205;-88
2021/03/20 09:12:58;;;;;;;11.43;6.45;;;8.40;37.20;;;;;;4975693;28;20211;-89
2021/03/20 09:15:29;;;;;;;3.20;2.90;;;8.90;38.00;;;;;;4974393;28;20198;-87
2021/03/20 09:17:59;;;;;;;3.53;3.08;;;9.10;33.20;;;;;;4974348;28;20255;-93
2021/03/20 09:20:35;;;;;;;5.63;4.60;;;7.10;34.50;;;;;;4971136;28;20201;-88
2021/03/20 09:23:03;;;;;;;9.33;4.40;;;6.50;36.20;;;;;;4964309;28;20299;-90
2021/03/20 09:25:33;;;;;;;5.20;4.03;;;5.80;41.70;;;;;;4970103;28;20595;-88
2021/03/20 09:28:06;;;;;;;11.37;6.63;;;5.60;41.20;;;;;;4965922;28;20613;-92
2021/03/20 09:30:35;;;;;;;16.93;8.70;;;6.50;45.50;;;;;;4965374;28;20200;-87
2021/03/20 09:33:05;;;;;;;15.60;8.23;;;5.60;44.80;;;;;;4966476;28;20294;-88
2021/03/20 09:35:43;;;;;;;32.33;12.90;;;6.10;45.20;;;;;;4971205;28;20216;-89
2021/03/20 09:38:10;;;;;;;16.23;7.87;;;7.30;40.70;;;;;;4964506;28;20252;-86
2021/03/20 09:40:51;;;;;;;10.87;6.80;;;7.50;40.70;;;;;;4980400;28;20207;-87
2021/03/20 09:43:39;;;;;;;10.20;6.27;;;6.70;41.90;;;;;;4974750;28;20282;-88
2021/03/20 09:46:46;;;;;;;72.53;40.67;;;6.70;41.00;;;;;;4971021;28;20208;-84
2021/03/20 09:49:49;;;;;;;47.30;25.47;;;6.30;42.70;;;;;;4969680;28;20703;-83
2021/03/20 09:55:40;;;;;;;66.83;37.03;;;6.50;41.60;;;;;;5068512;27;20585;-82
2021/03/20 09:58:07;;;;;;;39.33;22.43;;;6.00;41.30;;;;;;5040110;27;20686;-80
2021/03/20 10:00:49;;;;;;;20.43;11.73;;;5.20;44.50;;;;;;5019083;28;20286;-85
2021/03/20 10:03:39;;;;;;;45.40;23.43;;;5.50;44.70;;;;;;5028748;28;20230;-84
2021/03/20 10:06:29;;;;;;;40.67;21.53;;;6.10;45.20;;;;;;5108196;28;20192;-82
2021/03/20 10:09:23;;;;;;;24.27;12.23;;;7.30;40.80;;;;;;5052326;27;20275;-85
2021/03/20 10:12:24;;;;;;;49.80;22.90;;;7.70;37.60;;;;;;5013117;28;20201;-86
2021/03/20 10:15:13;;;;;;;9.03;4.97;;;8.80;36.80;;;;;;4993626;27;20234;-85
2021/03/20 10:18:21;;;;;;;8.33;3.93;;;8.10;33.10;;;;;;5009878;28;20215;-92
2021/03/20 10:21:20;;;;;;;24.20;11.53;;;7.30;35.50;;;;;;5003310;28;20242;-88
2021/03/20 10:23:53;;;;;;;26.25;11.88;;;7.70;39.10;;;;;;5011511;27;20673;-86
2021/03/20 10:26:32;;;;;;;44.95;17.92;;;9.30;33.40;;;;;;5013435;28;20607;-90
2021/03/20 10:29:02;;;;;;;11.68;5.25;;;10.60;29.30;;;;;;5038556;27;20754;-89
2021/03/20 10:31:41;;;;;;;37.85;16.80;;;9.30;29.60;;;;;;5015541;28;20195;-91
2021/03/20 10:34:11;;;;;;;10.00;5.70;;;7.40;34.00;;;;;;5024640;27;20237;-91
2021/03/20 10:36:40;;;;;;;22.60;9.23;;;6.50;37.00;;;;;;5018297;28;20242;-88
2021/03/20 10:39:21;;;;;;;3.83;2.93;;;5.80;40.60;;;;;;5014014;27;20222;-86
2021/03/20 10:41:48;;;;;;;49.97;19.20;;;5.30;38.40;;;;;;5006748;28;20318;-87
2021/03/20 10:44:18;;;;;;;3.40;3.10;;;5.30;44.50;;;;;;5000545;27;20589;-83
2021/03/20 10:46:46;;;;;;;24.10;10.23;;;4.90;42.00;;;;;;5003205;28;20203;-83
2021/03/20 10:49:16;;;;;;;13.93;7.93;;;5.80;44.90;;;;;;4998086;27;20228;-85
2021/03/20 10:51:45;;;;;;;22.27;9.73;;;5.70;44.80;;;;;;5017820;28;20204;-85
2021/03/20 10:54:18;;;;;;;26.10;11.47;;;6.60;43.50;;;;;;5036172;27;20231;-85
2021/03/20 10:56:47;;;;;;;33.73;12.93;;;6.40;45.40;;;;;;5001291;28;20204;-87
2021/03/20 10:59:22;;;;;;;13.27;6.67;;;5.90;46.50;;;;;;5015464;27;20582;-88
2021/03/20 11:02:32;;;;;;;6.10;3.50;;;5.50;44.70;;;;;;4989560;28;20279;-85
2021/03/20 11:10:11;;;;;;;11.50;5.67;;;5.70;43.50;;;;;;4992487;28;20223;-83
2021/03/20 11:12:45;;;;;;;3.87;3.50;;;5.20;44.50;;;;;;4987153;28;20206;-83
2021/03/20 11:15:25;;;;;;;3.73;3.43;;;5.00;44.30;;;;;;4986077;28;20234;-90
2021/03/20 11:17:57;;;;;;;6.33;4.70;;;4.20;43.70;;;;;;4981316;28;20208;-86
2021/03/20 11:20:31;;;;;;;6.93;4.43;;;3.70;47.70;;;;;;4979612;28;20207;-84
2021/03/20 11:22:57;;;;;;;5.80;4.60;;;3.40;47.40;;;;;;4995424;28;20250;-84
2021/03/20 11:25:32;;;;;;;4.97;4.30;;;3.20;48.00;;;;;;4983960;28;20547;-87
2021/03/20 11:28:02;;;;;;;4.87;4.47;;;3.30;49.70;;;;;;4992978;28;20235;-85
2021/03/20 11:30:37;;;;;;;6.37;5.07;;;3.40;49.20;;;;;;4984750;28;20225;-85
2021/03/20 11:33:04;;;;;;;6.20;4.93;;;3.20;50.60;;;;;;4996592;28;20235;-82
2021/03/20 11:35:34;;;;;;;5.23;4.37;;;3.20;49.40;;;;;;4984586;28;20204;-84
2021/03/20 11:38:01;;;;;;;7.40;3.83;;;3.40;49.40;;;;;;4989642;28;20204;-84
2021/03/20 11:40:36;;;;;;;7.93;4.03;;;3.30;46.00;;;;;;4985912;28;20690;-85
2021/03/20 11:43:05;;;;;;;6.07;4.00;;;3.20;45.70;;;;;;4980949;28;20237;-84
2021/03/20 11:45:35;;;;;;;5.93;3.80;;;2.90;47.80;;;;;;4979108;28;20208;-85
2021/03/20 11:48:53;;;;;;;4.67;3.70;;;2.70;48.60;;;;;;5128439;27;20548;-84
2021/03/20 11:51:24;;;;;;;5.57;3.80;;;2.40;48.80;;;;;;5083678;28;20199;-83
2021/03/20 11:53:54;;;;;;;4.00;3.60;;;2.20;49.30;;;;;;5085878;27;20221;-84
2021/03/20 11:56:24;;;;;;;4.40;4.00;;;1.80;50.20;;;;;;5114687;27;20251;-83
2021/03/20 11:58:53;;;;;;;6.27;3.70;;;1.90;51.60;;;;;;5118625;27;20683;-83
2021/03/20 12:01:29;;;;;;;3.83;3.50;;;1.90;51.50;;;;;;5104821;28;20202;-84
2021/03/20 12:03:59;;;;;;;3.93;3.00;;;1.90;52.60;;;;;;5105407;28;20245;-81
2021/03/20 12:06:30;;;;;;;4.07;3.40;;;1.70;48.20;;;;;;5111194;28;20274;-80
2021/03/20 12:08:57;;;;;;;3.53;3.10;;;1.80;48.50;;;;;;5105921;27;20688;-83
2021/03/20 12:11:54;;;;;;;4.77;3.27;;;2.10;48.10;;;;;;5105438;28;20221;-86
2021/03/20 12:14:36;;;;;;;3.73;3.00;;;2.70;49.00;;;;;;5103443;28;20214;-84
2021/03/20 12:17:18;;;;;;;8.03;4.07;;;3.20;44.60;;;;;;5101070;28;20291;-81
2021/03/20 12:20:01;;;;;;;3.73;3.10;;;3.30;42.90;;;;;;5110094;28;20223;-80
2021/03/20 12:22:42;;;;;;;4.23;2.97;;;3.40;40.70;;;;;;5110471;28;20210;-84
2021/03/20 12:25:28;;;;;;;3.80;3.40;;;3.40;40.50;;;;;;5110205;28;20219;-81
2021/03/20 12:28:10;;;;;;;4.03;3.63;;;3.50;43.10;;;;;;5101612;28;20681;-82
2021/03/20 12:30:37;;;;;;;3.33;3.07;;;3.40;45.80;;;;;;5103958;28;21020;-84
2021/03/20 12:33:14;;;;;;;4.27;3.87;;;3.20;42.80;;;;;;5107120;28;20306;-85
2021/03/20 12:35:42;;;;;;;5.87;3.80;;;2.90;45.30;;;;;;5104499;28;20567;-85
2021/03/20 12:38:19;;;;;;;4.53;3.60;;;2.80;44.60;;;;;;5108468;28;20227;-85
2021/03/20 12:41:01;;;;;;;3.70;3.40;;;2.70;43.90;;;;;;5107906;28;20246;-82
2021/03/20 12:43:31;;;;;;;6.03;3.90;;;2.70;42.40;;;;;;5097617;28;20582;-81
2021/03/20 12:45:59;;;;;;;4.20;3.80;;;2.40;44.10;;;;;;5102639;28;20195;-83
2021/03/20 12:48:26;;;;;;;7.13;4.00;;;2.40;48.10;;;;;;5104171;28;20228;-83
2021/03/20 12:50:59;;;;;;;4.77;3.87;;;2.80;49.10;;;;;;5105739;28;20568;-82
2021/03/20 12:53:25;;;;;;;4.43;3.43;;;3.30;50.90;;;;;;5105260;28;20690;-83
2021/03/20 12:55:52;;;;;;;3.27;2.97;;;3.40;43.00;;;;;;5109454;28;20287;-83
2021/03/20 12:58:18;;;;;;;5.73;3.33;;;3.30;43.00;;;;;;5091928;28;20338;-82
2021/03/20 13:00:45;;;;;;;5.63;3.80;;;3.00;44.00;;;;;;5086744;28;20195;-84
2021/03/20 13:03:12;;;;;;;4.17;3.73;;;3.10;46.00;;;;;;5087982;28;20233;-83
2021/03/20 13:05:40;;;;;;;3.90;3.60;;;3.20;47.40;;;;;;5087378;28;20802;-84
2021/03/20 13:08:08;;;;;;;4.60;3.47;;;3.40;44.70;;;;;;5085106;28;20352;-84
2021/03/20 13:10:34;;;;;;;4.73;3.73;;;2.90;46.30;;;;;;5089714;28;20217;-83
2021/03/20 13:13:01;;;;;;;3.83;3.43;;;2.60;48.40;;;;;;5095914;28;20554;-83
2021/03/20 13:15:28;;;;;;;4.00;3.60;;;2.70;46.40;;;;;;5088984;28;20313;-84
2021/03/20 13:17:55;;;;;;;4.23;3.83;;;2.50;46.50;;;;;;5096599;28;20234;-83
2021/03/20 13:20:23;;;;;;;6.67;4.20;;;2.40;49.10;;;;;;5094292;28;20192;-82
2021/03/20 13:22:50;;;;;;;4.53;3.80;;;2.50;49.80;;;;;;5091492;28;20725;-83
2021/03/20 13:25:24;;;;;;;4.43;3.57;;;2.50;49.80;;;;;;5093165;28;20469;-83
2021/03/20 13:27:50;;;;;;;6.07;4.07;;;2.40;49.60;;;;;;5095281;28;20300;-85
2021/03/20 13:30:21;;;;;;;4.70;3.80;;;2.10;52.60;;;;;;5088602;28;20211;-83
2021/03/20 13:32:49;;;;;;;4.23;3.83;;;1.80;53.00;;;;;;5085473;28;20226;-85
2021/03/20 13:35:16;;;;;;;5.13;4.00;;;1.40;56.10;;;;;;5088869;28;20214;-85
2021/03/20 13:37:43;;;;;;;5.17;3.90;;;1.10;57.70;;;;;;5091837;28;20669;-85